Time;durP1;ratioP1;P1;durP2;ratioP2;P2;SDS_P1;SDS_P2;PMS_P1;PMS_P2;Temp;Humidity;BMP_temperature;BMP_pressure;BME280_temperature;BME280_humidity;BME280_pressure;Samples;Min_cycle;Max_cycle;Signal;HPM_P1;HPM_P2
2022/12/22 03:27:07;;;;;;;0.47;0.38;;;12.00;99.90;;;;;;4988449;28;20217;-76
2022/12/22 03:29:32;;;;;;;0.32;0.32;;;12.00;99.90;;;;;;4973310;28;20176;-76
2022/12/22 03:32:00;;;;;;;1.55;0.50;;;12.00;99.90;;;;;;4975198;28;20195;-76
2022/12/22 03:34:26;;;;;;;0.40;0.40;;;12.00;99.90;;;;;;4973841;28;20199;-77
2022/12/22 03:36:51;;;;;;;0.30;0.30;;;11.90;99.90;;;;;;4977571;28;20194;-76
2022/12/22 03:39:17;;;;;;;0.40;0.40;;;11.90;99.90;;;;;;4975533;28;20266;-76
2022/12/22 03:47:11;;;;;;;0.90;0.50;;;11.90;99.90;;;;;;4987675;28;20206;-76
2022/12/22 03:49:36;;;;;;;0.55;0.40;;;11.90;99.90;;;;;;4975588;28;20179;-76
2022/12/22 03:52:02;;;;;;;0.50;0.40;;;11.90;99.90;;;;;;4974380;28;20187;-77
2022/12/22 03:54:27;;;;;;;1.33;0.35;;;11.90;99.90;;;;;;4977648;28;20226;-76
2022/12/22 03:56:53;;;;;;;1.60;0.50;;;11.90;99.90;;;;;;4976368;28;20187;-76
2022/12/22 03:59:19;;;;;;;0.45;0.45;;;11.90;99.90;;;;;;4964033;28;20184;-76
2022/12/22 04:01:48;;;;;;;0.40;0.40;;;11.90;99.90;;;;;;4979849;28;20352;-77
2022/12/22 04:04:16;;;;;;;0.40;0.40;;;12.00;99.90;;;;;;4989572;28;20183;-77
2022/12/22 04:06:42;;;;;;;0.40;0.40;;;11.80;99.90;;;;;;4983445;28;20199;-77
2022/12/22 04:09:09;;;;;;;0.98;0.50;;;11.90;99.90;;;;;;4977953;28;20186;-77
2022/12/22 04:14:20;;;;;;;0.40;0.30;;;12.00;99.90;;;;;;4995892;28;20226;-77
2022/12/22 04:16:48;;;;;;;0.45;0.40;;;11.90;99.90;;;;;;4975513;28;20380;-77
2022/12/22 04:19:16;;;;;;;0.43;0.43;;;11.90;99.90;;;;;;4978852;28;20179;-77
2022/12/22 04:21:42;;;;;;;0.82;0.60;;;11.90;99.90;;;;;;4974873;28;20179;-76
2022/12/22 04:24:10;;;;;;;0.85;0.70;;;11.90;99.90;;;;;;4974752;28;20226;-77
2022/12/22 04:26:40;;;;;;;0.50;0.50;;;11.90;99.90;;;;;;4978023;28;20452;-77
2022/12/22 04:29:08;;;;;;;1.50;1.00;;;11.80;99.90;;;;;;4974859;28;20184;-76
2022/12/22 04:31:36;;;;;;;2.15;1.85;;;11.80;99.90;;;;;;4987056;28;20183;-76
2022/12/22 04:34:02;;;;;;;1.75;1.05;;;11.80;99.90;;;;;;4992403;28;20188;-77
2022/12/22 04:36:28;;;;;;;1.25;0.88;;;11.80;99.90;;;;;;4986431;28;20206;-77
2022/12/22 04:38:53;;;;;;;1.10;0.80;;;11.80;99.90;;;;;;4976758;28;20194;-77
2022/12/22 04:41:19;;;;;;;1.13;1.02;;;11.80;99.90;;;;;;4977401;28;20171;-76
2022/12/22 04:43:44;;;;;;;0.90;0.80;;;11.80;99.90;;;;;;4973963;28;20206;-78
2022/12/22 04:46:10;;;;;;;0.88;0.80;;;11.90;99.90;;;;;;4967200;28;20199;-75
2022/12/22 04:48:36;;;;;;;0.95;0.65;;;11.90;99.90;;;;;;4975586;28;20195;-77
2022/12/22 04:51:02;;;;;;;0.82;0.70;;;11.90;99.90;;;;;;4974192;28;20219;-77
2022/12/22 04:53:33;;;;;;;0.52;0.52;;;11.90;99.90;;;;;;4969614;28;20171;-77
2022/12/22 04:56:04;;;;;;;0.75;0.50;;;11.90;99.90;;;;;;4986488;28;20182;-76
2022/12/22 04:58:31;;;;;;;0.80;0.63;;;11.90;99.90;;;;;;4981980;28;20207;-77
2022/12/22 05:01:09;;;;;;;0.60;0.60;;;11.90;99.90;;;;;;4982491;28;20183;-77
2022/12/22 05:03:37;;;;;;;0.70;0.60;;;12.00;99.90;;;;;;4988464;28;20194;-77
2022/12/22 05:06:03;;;;;;;0.57;0.50;;;12.00;99.90;;;;;;4977108;28;20421;-77
2022/12/22 05:08:28;;;;;;;0.60;0.50;;;12.00;99.90;;;;;;4982184;28;20497;-77
2022/12/22 05:10:54;;;;;;;0.98;0.70;;;12.00;99.90;;;;;;4977376;28;20187;-76
2022/12/22 05:13:22;;;;;;;0.90;0.60;;;12.00;99.90;;;;;;4977342;28;20195;-76
2022/12/22 05:15:48;;;;;;;0.68;0.50;;;12.00;99.90;;;;;;4971790;28;20187;-76
2022/12/22 05:18:16;;;;;;;0.63;0.40;;;12.00;99.90;;;;;;4981325;28;20175;-76
2022/12/22 05:20:41;;;;;;;0.70;0.60;;;12.00;99.90;;;;;;4974390;28;20184;-76
2022/12/22 05:23:07;;;;;;;0.63;0.50;;;12.20;99.90;;;;;;4978513;28;20172;-78
2022/12/22 05:25:33;;;;;;;0.85;0.50;;;12.00;99.90;;;;;;4980852;28;20269;-76
2022/12/22 05:27:58;;;;;;;0.60;0.50;;;12.00;99.90;;;;;;4975009;28;20187;-78
2022/12/22 05:30:24;;;;;;;0.73;0.52;;;11.90;99.90;;;;;;4979603;28;20175;-77
2022/12/22 05:32:51;;;;;;;0.60;0.45;;;12.00;99.90;;;;;;4978586;28;20183;-77
2022/12/22 05:35:19;;;;;;;0.77;0.52;;;12.00;99.90;;;;;;4976207;28;20199;-77
2022/12/22 05:37:47;;;;;;;0.30;0.30;;;12.10;99.90;;;;;;4981102;28;20180;-77
2022/12/22 05:40:15;;;;;;;0.30;0.30;;;12.10;99.90;;;;;;4994485;28;20226;-77
2022/12/22 05:42:41;;;;;;;1.30;0.47;;;12.10;99.90;;;;;;4977487;28;20171;-78
2022/12/22 05:45:13;;;;;;;0.47;0.43;;;12.10;99.90;;;;;;4980221;28;20175;-75
2022/12/22 05:47:43;;;;;;;1.02;0.60;;;12.10;99.90;;;;;;4980931;28;20290;-76
2022/12/22 05:50:11;;;;;;;1.70;0.60;;;12.20;99.90;;;;;;4975089;28;20183;-76
2022/12/22 05:52:39;;;;;;;0.55;0.50;;;12.20;99.90;;;;;;4975283;28;20198;-75
2022/12/22 05:55:06;;;;;;;0.65;0.50;;;12.20;99.90;;;;;;4974281;28;20203;-76
2022/12/22 05:57:34;;;;;;;1.10;0.73;;;12.20;99.90;;;;;;4984172;28;20195;-75
2022/12/22 06:00:00;;;;;;;5.88;0.60;;;12.20;99.90;;;;;;4980725;28;20187;-75
2022/12/22 06:02:26;;;;;;;0.45;0.45;;;12.20;99.90;;;;;;4979705;28;20211;-76
2022/12/22 06:04:51;;;;;;;0.60;0.50;;;12.20;99.90;;;;;;4981184;28;20179;-76
2022/12/22 06:07:17;;;;;;;0.60;0.40;;;12.10;99.90;;;;;;4985258;28;20476;-76
2022/12/22 06:09:43;;;;;;;0.80;0.60;;;12.10;99.90;;;;;;4984228;28;20265;-76
2022/12/22 06:12:08;;;;;;;1.60;1.00;;;12.20;99.90;;;;;;4983133;28;20179;-76
2022/12/22 06:14:34;;;;;;;1.42;0.80;;;12.20;99.90;;;;;;4980221;28;20171;-76
2022/12/22 06:17:01;;;;;;;1.85;0.82;;;12.20;99.90;;;;;;4971562;28;20203;-76
2022/12/22 06:19:27;;;;;;;1.40;0.82;;;12.10;99.90;;;;;;4969714;28;20249;-76
2022/12/22 06:21:54;;;;;;;1.65;0.93;;;12.10;99.90;;;;;;4984565;28;20204;-75
2022/12/22 06:24:20;;;;;;;2.55;1.40;;;12.10;99.90;;;;;;4980755;28;20176;-75
2022/12/22 06:26:48;;;;;;;3.92;1.92;;;12.20;99.90;;;;;;4980465;28;20209;-76
2022/12/22 06:29:16;;;;;;;2.38;1.50;;;12.20;99.90;;;;;;4981879;28;20203;-76
2022/12/22 06:31:44;;;;;;;2.92;1.50;;;12.10;99.90;;;;;;4977494;28;20179;-74
2022/12/22 06:34:16;;;;;;;2.22;1.70;;;12.10;99.90;;;;;;4972396;28;20176;-76
2022/12/22 06:36:43;;;;;;;1.90;1.25;;;12.10;99.90;;;;;;4977329;28;20179;-75
2022/12/22 06:39:09;;;;;;;1.83;1.30;;;12.10;99.90;;;;;;4979179;28;20210;-76
2022/12/22 06:44:21;;;;;;;1.98;1.13;;;12.20;99.90;;;;;;4987270;28;20182;-76
2022/12/22 06:46:46;;;;;;;3.00;1.50;;;12.10;99.90;;;;;;4977025;28;20305;-75
2022/12/22 06:49:14;;;;;;;2.42;1.63;;;12.10;99.90;;;;;;4964753;28;20283;-77
2022/12/22 06:51:40;;;;;;;2.15;1.20;;;12.10;99.90;;;;;;4986170;28;20183;-75
2022/12/22 06:54:06;;;;;;;3.47;1.58;;;12.10;99.90;;;;;;4978864;28;20202;-76
2022/12/22 06:56:34;;;;;;;2.35;1.00;;;12.10;99.90;;;;;;4975749;28;20314;-75
2022/12/22 06:59:02;;;;;;;1.30;1.00;;;12.10;99.90;;;;;;4975703;28;20214;-77
2022/12/22 07:01:28;;;;;;;2.17;0.70;;;12.10;99.90;;;;;;4964136;28;20181;-76
2022/12/22 07:03:55;;;;;;;0.90;0.68;;;12.10;99.90;;;;;;4973991;28;20214;-77
2022/12/22 07:06:21;;;;;;;1.05;0.60;;;12.10;99.90;;;;;;4994599;28;20192;-75
2022/12/22 07:08:49;;;;;;;1.10;0.77;;;12.10;99.90;;;;;;4996180;28;20207;-73
2022/12/22 07:11:16;;;;;;;2.15;0.82;;;12.10;99.90;;;;;;5002140;28;20243;-72
2022/12/22 07:13:46;;;;;;;1.92;0.90;;;12.10;99.90;;;;;;4990336;28;20172;-74
2022/12/22 07:16:15;;;;;;;0.90;0.70;;;12.00;99.90;;;;;;4998610;28;20223;-75
2022/12/22 07:18:42;;;;;;;1.20;0.82;;;12.00;99.90;;;;;;4998222;28;20180;-76
2022/12/22 07:21:13;;;;;;;1.98;0.90;;;12.00;99.90;;;;;;5001132;28;20222;-77
2022/12/22 07:23:41;;;;;;;1.85;1.00;;;12.00;99.90;;;;;;4997020;28;20223;-79
2022/12/22 07:26:11;;;;;;;2.40;1.00;;;12.00;99.90;;;;;;4976196;28;20211;-78
2022/12/22 07:28:38;;;;;;;1.27;0.93;;;12.00;99.90;;;;;;4978509;28;20176;-77
2022/12/22 07:31:07;;;;;;;1.10;0.85;;;12.00;99.90;;;;;;4984841;28;20186;-79
2022/12/22 07:33:33;;;;;;;1.48;1.00;;;11.90;99.90;;;;;;4983091;28;20174;-76
2022/12/22 07:36:11;;;;;;;1.02;0.85;;;11.90;99.90;;;;;;4980353;28;20209;-73
2022/12/22 07:38:42;;;;;;;1.25;0.75;;;11.90;99.90;;;;;;4969637;28;20245;-73
2022/12/22 07:43:56;;;;;;;0.90;0.60;;;11.90;99.90;;;;;;5004748;28;20208;-73
2022/12/22 07:46:23;;;;;;;0.95;0.80;;;11.90;99.90;;;;;;4974192;28;20200;-73
2022/12/22 07:51:36;;;;;;;1.33;0.90;;;11.90;99.90;;;;;;4993530;28;20193;-76
2022/12/22 07:54:04;;;;;;;0.60;0.60;;;12.00;99.90;;;;;;4984002;28;20176;-77
2022/12/22 07:56:30;;;;;;;1.40;1.00;;;12.00;99.90;;;;;;4978182;28;20230;-76
2022/12/22 07:58:56;;;;;;;1.58;0.80;;;12.10;99.90;;;;;;4963990;28;20183;-76
2022/12/22 08:01:24;;;;;;;1.08;0.90;;;12.00;99.90;;;;;;4970680;28;20187;-76
2022/12/22 08:03:50;;;;;;;1.13;0.88;;;12.00;99.90;;;;;;4973934;28;20257;-76
2022/12/22 08:06:18;;;;;;;1.15;0.80;;;12.00;99.90;;;;;;4977537;28;20211;-76
2022/12/22 08:08:44;;;;;;;0.80;0.73;;;12.00;99.90;;;;;;4971767;28;20468;-76
2022/12/22 08:11:10;;;;;;;0.90;0.73;;;12.00;99.90;;;;;;4991572;28;20222;-76
2022/12/22 08:13:35;;;;;;;0.75;0.63;;;12.00;99.90;;;;;;4976476;28;20238;-77
2022/12/22 08:16:03;;;;;;;1.00;0.70;;;12.10;99.90;;;;;;4983083;28;20236;-76
2022/12/22 08:18:33;;;;;;;1.08;0.70;;;12.10;99.90;;;;;;4967849;28;20207;-76
2022/12/22 08:20:59;;;;;;;1.13;0.80;;;12.10;99.90;;;;;;4962141;28;20304;-77
2022/12/22 08:23:25;;;;;;;0.90;0.70;;;12.10;99.90;;;;;;4968623;28;20175;-76
2022/12/22 08:25:57;;;;;;;1.02;0.80;;;12.10;99.90;;;;;;4975407;28;20192;-76
2022/12/22 08:28:26;;;;;;;1.10;0.90;;;12.10;99.90;;;;;;4978689;28;20175;-76
2022/12/22 08:30:57;;;;;;;1.10;0.90;;;12.10;99.90;;;;;;4977424;28;20175;-77
2022/12/22 08:33:25;;;;;;;1.30;1.10;;;12.30;99.90;;;;;;4980028;28;20199;-76
2022/12/22 08:35:51;;;;;;;1.10;1.00;;;12.10;99.90;;;;;;4976423;28;20274;-78
2022/12/22 08:38:16;;;;;;;1.45;1.02;;;12.10;99.90;;;;;;4977992;28;20195;-78
2022/12/22 08:40:46;;;;;;;2.58;1.23;;;12.10;99.90;;;;;;4973714;28;20263;-76
2022/12/22 08:43:11;;;;;;;1.40;1.00;;;12.20;99.90;;;;;;4962368;28;20184;-76
2022/12/22 08:45:37;;;;;;;1.17;0.98;;;12.20;99.90;;;;;;4959548;28;20176;-78
2022/12/22 08:48:03;;;;;;;1.30;1.20;;;12.20;99.90;;;;;;4965039;28;20254;-77
2022/12/22 08:50:28;;;;;;;1.85;1.10;;;12.20;99.90;;;;;;4960071;28;20227;-76
2022/12/22 08:53:07;;;;;;;1.60;1.50;;;12.20;99.90;;;;;;4969405;28;20237;-76
2022/12/22 08:55:33;;;;;;;1.90;1.58;;;12.20;99.90;;;;;;4972308;28;20199;-76
2022/12/22 08:57:59;;;;;;;2.10;1.90;;;12.30;99.90;;;;;;4966978;28;20175;-77
2022/12/22 09:00:25;;;;;;;2.20;1.92;;;12.30;99.90;;;;;;4963990;28;20211;-77
2022/12/22 09:02:51;;;;;;;2.65;2.42;;;12.30;99.90;;;;;;4958679;28;20220;-77
2022/12/22 09:05:19;;;;;;;2.53;2.33;;;12.30;99.90;;;;;;4968119;28;20183;-74
2022/12/22 09:07:47;;;;;;;3.00;2.70;;;12.30;99.90;;;;;;4972349;28;20223;-75
2022/12/22 09:10:13;;;;;;;3.88;2.65;;;12.30;99.90;;;;;;4974780;28;20191;-76
2022/12/22 09:12:39;;;;;;;3.58;2.92;;;12.30;99.90;;;;;;4973693;28;20175;-76
2022/12/22 09:15:07;;;;;;;4.22;2.90;;;12.30;99.90;;;;;;4978333;28;20210;-77
2022/12/22 09:17:36;;;;;;;3.10;2.80;;;12.30;99.90;;;;;;4993290;28;20214;-77
2022/12/22 09:20:03;;;;;;;3.72;3.38;;;12.20;99.90;;;;;;4974242;28;20172;-76
2022/12/22 09:22:29;;;;;;;4.22;3.58;;;12.20;99.90;;;;;;4965185;28;20400;-76
2022/12/22 09:24:57;;;;;;;5.60;4.30;;;12.20;99.90;;;;;;4983067;28;20182;-76
2022/12/22 09:27:27;;;;;;;5.45;4.80;;;12.10;99.90;;;;;;4988524;28;20203;-75
2022/12/22 09:29:56;;;;;;;5.35;4.43;;;12.10;99.90;;;;;;4970169;28;20171;-76
2022/12/22 09:32:24;;;;;;;6.10;4.80;;;12.00;99.90;;;;;;4977338;28;20171;-76
2022/12/22 09:34:49;;;;;;;6.00;5.03;;;12.10;99.90;;;;;;4973258;28;20176;-76
2022/12/22 09:37:17;;;;;;;7.00;5.40;;;12.00;99.90;;;;;;4976995;28;20176;-76
2022/12/22 09:39:46;;;;;;;8.30;6.03;;;12.10;99.90;;;;;;4975255;28;20270;-76
2022/12/22 09:42:18;;;;;;;8.65;6.20;;;12.00;99.90;;;;;;4959850;28;20200;-77
2022/12/22 09:44:49;;;;;;;5.70;4.70;;;12.00;99.90;;;;;;4957186;28;20195;-77
2022/12/22 09:47:36;;;;;;;7.55;6.03;;;12.00;99.90;;;;;;4979495;28;20222;-75
2022/12/22 09:50:07;;;;;;;8.05;5.82;;;11.90;99.90;;;;;;4974475;28;20241;-76
2022/12/22 09:52:33;;;;;;;9.45;7.00;;;11.90;99.90;;;;;;4964306;28;20184;-77
2022/12/22 09:55:00;;;;;;;8.57;7.05;;;11.90;99.90;;;;;;4989489;28;20245;-77
2022/12/22 09:57:30;;;;;;;9.18;6.75;;;11.90;99.90;;;;;;4971706;28;20184;-76
2022/12/22 10:00:05;;;;;;;9.07;6.85;;;11.90;99.90;;;;;;4966023;28;20184;-77
2022/12/22 10:02:46;;;;;;;8.68;6.70;;;11.90;99.90;;;;;;4975982;28;20301;-77
2022/12/22 10:05:37;;;;;;;8.98;6.72;;;11.90;99.90;;;;;;4985157;28;20218;-77
2022/12/22 10:08:14;;;;;;;9.10;6.60;;;11.90;99.90;;;;;;4969335;28;20231;-77
2022/12/22 10:10:42;;;;;;;8.50;6.57;;;11.90;99.90;;;;;;4965321;28;20206;-77
2022/12/22 10:13:16;;;;;;;9.82;6.70;;;11.90;99.90;;;;;;4971265;28;20184;-77
2022/12/22 10:15:41;;;;;;;8.38;6.40;;;12.00;99.90;;;;;;4980180;28;20206;-77
2022/12/22 10:18:17;;;;;;;9.55;7.38;;;12.00;99.90;;;;;;4984544;28;20205;-77
2022/12/22 10:20:48;;;;;;;8.75;6.25;;;12.10;99.90;;;;;;4975309;28;20183;-77
2022/12/22 10:23:19;;;;;;;9.00;6.45;;;12.10;99.90;;;;;;4983852;28;20329;-77
2022/12/22 10:25:56;;;;;;;7.43;5.53;;;12.10;99.90;;;;;;4979355;28;20203;-76
2022/12/22 10:28:26;;;;;;;8.05;6.07;;;12.20;99.90;;;;;;4966980;28;20222;-77
2022/12/22 10:31:23;;;;;;;8.73;6.63;;;12.20;99.90;;;;;;4962064;28;20242;-76
2022/12/22 10:33:51;;;;;;;8.77;5.95;;;12.30;99.90;;;;;;4973859;28;20187;-76
2022/12/22 10:36:29;;;;;;;7.95;6.00;;;12.30;99.90;;;;;;4972712;28;20176;-76
2022/12/22 10:39:19;;;;;;;9.15;6.72;;;12.40;99.90;;;;;;4977982;28;20195;-77
2022/12/22 10:41:49;;;;;;;8.10;6.03;;;12.50;99.90;;;;;;4992439;28;20203;-76
2022/12/22 10:44:15;;;;;;;7.63;6.32;;;12.50;99.90;;;;;;4979369;28;20175;-76
2022/12/22 10:46:42;;;;;;;8.63;6.25;;;12.60;99.90;;;;;;4983181;28;20195;-77
2022/12/22 10:49:11;;;;;;;8.98;5.90;;;12.60;99.90;;;;;;4979113;28;20176;-76
2022/12/22 10:51:38;;;;;;;8.07;6.03;;;12.60;99.90;;;;;;4971459;28;20187;-76
2022/12/22 10:54:04;;;;;;;8.85;6.03;;;12.60;99.90;;;;;;4969199;28;20180;-79
2022/12/22 10:56:36;;;;;;;9.60;6.30;;;12.60;99.90;;;;;;4976829;28;20191;-78
2022/12/22 10:59:01;;;;;;;8.25;6.00;;;12.60;99.90;;;;;;4977020;28;20179;-77
2022/12/22 11:01:34;;;;;;;9.10;6.85;;;12.60;99.90;;;;;;4971201;28;20202;-78
2022/12/22 11:04:18;;;;;;;8.88;6.60;;;12.60;99.90;;;;;;4986711;28;20226;-77
2022/12/22 11:49:06;;;;;;;8.45;6.50;;;13.60;99.90;;;;;;4910243;29;20253;-75
2022/12/22 16:39:54;;;;;;;1.10;0.82;;;12.20;99.90;;;;;;5281286;23;20236;-69
2022/12/22 16:42:22;;;;;;;1.00;0.77;;;12.10;99.90;;;;;;4973400;28;20212;-67
2022/12/22 16:44:47;;;;;;;1.00;0.70;;;12.20;99.90;;;;;;4960505;28;20188;-66
2022/12/22 16:47:28;;;;;;;0.80;0.60;;;12.20;99.90;;;;;;4992712;28;20204;-68
2022/12/22 16:50:05;;;;;;;0.80;0.57;;;12.20;99.90;;;;;;4964208;28;20187;-70
2022/12/22 16:52:39;;;;;;;0.65;0.60;;;12.20;99.90;;;;;;4962268;28;20168;-76
2022/12/22 16:55:14;;;;;;;1.13;0.43;;;12.20;99.90;;;;;;4961014;28;20171;-73
2022/12/22 16:57:42;;;;;;;0.75;0.50;;;12.20;99.90;;;;;;4963538;28;20195;-73
2022/12/22 17:00:13;;;;;;;0.98;0.52;;;12.30;99.90;;;;;;4962625;28;20303;-73
2022/12/22 17:02:40;;;;;;;0.65;0.55;;;12.20;99.90;;;;;;4962964;28;20495;-73
2022/12/22 17:05:21;;;;;;;1.35;0.60;;;12.20;99.90;;;;;;4962378;28;20180;-73
2022/12/22 17:08:47;;;;;;;1.33;0.60;;;12.20;99.90;;;;;;4961851;28;20207;-72
2022/12/22 20:11:28;;;;;;;4.10;1.70;;;12.30;99.90;;;;;;4823472;29;20243;-72
2022/12/22 20:13:54;;;;;;;3.88;1.65;;;12.40;99.90;;;;;;4887573;29;20183;-75
2022/12/22 21:14:40;;;;;;;4.53;2.30;;;11.50;99.90;;;;;;4824346;29;20212;-77
2022/12/22 21:17:14;;;;;;;5.60;2.60;;;11.50;99.90;;;;;;4815666;29;20300;-75
2022/12/22 21:19:40;;;;;;;5.55;2.60;;;11.50;99.90;;;;;;4807045;29;20376;-75
2022/12/22 21:22:08;;;;;;;9.18;2.58;;;11.40;99.90;;;;;;4947347;28;20299;-75
2022/12/22 21:24:34;;;;;;;5.85;2.78;;;11.40;99.90;;;;;;4948494;28;20185;-76
2022/12/22 21:27:03;;;;;;;4.30;2.20;;;11.40;99.90;;;;;;4953640;28;20206;-75
2022/12/22 21:29:33;;;;;;;6.50;2.30;;;11.40;99.90;;;;;;4955510;28;20178;-76
2022/12/22 21:31:58;;;;;;;6.50;2.55;;;11.30;99.90;;;;;;4947105;28;20200;-75
2022/12/22 21:34:26;;;;;;;7.40;2.80;;;11.40;99.90;;;;;;4973558;28;20187;-76
2022/12/22 21:37:02;;;;;;;5.35;2.30;;;11.30;99.90;;;;;;4947606;28;20172;-77
2022/12/22 21:39:43;;;;;;;7.03;2.95;;;11.30;99.90;;;;;;4951411;28;20214;-75
2022/12/22 21:42:20;;;;;;;7.30;2.60;;;11.30;99.90;;;;;;4963628;28;20226;-75
2022/12/22 21:44:46;;;;;;;6.75;2.90;;;11.30;99.90;;;;;;4957596;28;20196;-75
2022/12/22 21:47:15;;;;;;;6.68;3.05;;;11.30;99.90;;;;;;4959428;28;20315;-75
2022/12/22 21:49:41;;;;;;;7.55;3.22;;;11.30;99.90;;;;;;4954473;28;20187;-75
2022/12/22 21:52:08;;;;;;;6.93;3.08;;;11.30;99.90;;;;;;4955491;28;20281;-75
2022/12/22 21:54:36;;;;;;;4.78;3.00;;;11.40;99.90;;;;;;4956977;28;20188;-73
2022/12/22 21:57:04;;;;;;;6.50;3.42;;;11.40;99.90;;;;;;4955149;28;20181;-74
2022/12/22 21:59:30;;;;;;;6.55;3.15;;;11.30;99.90;;;;;;4950853;28;20203;-73
2022/12/22 22:01:58;;;;;;;8.10;3.70;;;11.40;99.90;;;;;;4969312;28;20195;-74
2022/12/22 22:04:26;;;;;;;7.70;4.10;;;11.40;99.90;;;;;;4950336;28;20187;-74
2022/12/22 22:06:51;;;;;;;6.45;3.90;;;11.40;99.90;;;;;;4958482;28;20204;-74
2022/12/22 22:09:17;;;;;;;6.53;3.58;;;11.40;99.90;;;;;;4969013;28;21634;-74
2022/12/22 22:14:26;;;;;;;7.28;3.50;;;11.40;99.90;;;;;;4963559;28;20186;-74
2022/12/22 22:16:52;;;;;;;5.40;3.33;;;11.40;99.90;;;;;;4949265;28;20284;-74
2022/12/22 22:19:20;;;;;;;7.78;3.40;;;11.50;99.90;;;;;;4955123;28;20208;-74
2022/12/22 22:21:46;;;;;;;8.80;3.95;;;11.50;99.90;;;;;;4955608;28;20184;-74
2022/12/22 22:24:14;;;;;;;7.32;3.58;;;11.50;99.90;;;;;;4958532;28;20275;-74
2022/12/22 22:26:50;;;;;;;6.85;3.53;;;11.50;99.90;;;;;;4965180;28;20203;-74
2022/12/22 22:29:16;;;;;;;8.35;3.47;;;11.50;99.90;;;;;;4958106;28;20283;-74
2022/12/22 22:31:41;;;;;;;5.95;3.38;;;11.50;99.90;;;;;;4945123;28;20283;-74
2022/12/22 22:34:10;;;;;;;4.97;3.08;;;11.50;99.90;;;;;;4950516;28;20172;-73
2022/12/22 22:36:38;;;;;;;7.97;3.90;;;11.50;99.90;;;;;;4949650;28;20185;-74
2022/12/22 22:39:06;;;;;;;5.43;3.08;;;11.50;99.90;;;;;;4952961;28;20203;-74
2022/12/22 22:41:34;;;;;;;5.57;3.15;;;11.50;99.90;;;;;;4947591;28;20181;-74
2022/12/22 22:43:59;;;;;;;6.50;3.28;;;11.60;99.90;;;;;;4956485;28;20232;-74
2022/12/22 22:46:27;;;;;;;6.90;3.40;;;11.60;99.90;;;;;;4957332;28;20263;-73
2022/12/22 22:48:59;;;;;;;4.50;3.13;;;11.50;99.90;;;;;;4965558;28;20192;-74
2022/12/22 22:51:25;;;;;;;5.50;3.20;;;11.60;99.90;;;;;;4954877;28;20639;-74
2022/12/22 22:53:51;;;;;;;5.18;3.03;;;11.60;99.90;;;;;;4958774;28;20191;-72
2022/12/22 22:56:21;;;;;;;6.03;3.17;;;11.60;99.90;;;;;;4958514;28;20175;-73
2022/12/22 22:58:47;;;;;;;5.60;3.30;;;11.60;99.90;;;;;;4969238;28;20262;-76
2022/12/22 23:01:13;;;;;;;7.45;4.13;;;11.60;99.90;;;;;;4949694;28;20204;-73
2022/12/22 23:03:40;;;;;;;7.38;4.13;;;11.60;99.90;;;;;;4957749;28;20229;-74
2022/12/22 23:06:11;;;;;;;8.15;4.35;;;11.60;99.90;;;;;;4952075;28;20211;-74
2022/12/22 23:08:37;;;;;;;6.72;3.92;;;11.60;99.90;;;;;;4965702;28;20201;-74
2022/12/22 23:11:04;;;;;;;6.97;3.85;;;11.50;99.90;;;;;;4953008;28;20271;-74
2022/12/22 23:13:30;;;;;;;6.68;3.80;;;11.60;99.90;;;;;;4949087;28;20180;-75
2022/12/22 23:16:00;;;;;;;5.57;3.55;;;11.60;99.90;;;;;;4957866;28;20287;-74
2022/12/22 23:18:27;;;;;;;5.38;3.33;;;11.50;99.90;;;;;;4956044;28;20222;-74
2022/12/22 23:20:55;;;;;;;5.03;3.05;;;11.60;99.90;;;;;;4956835;28;20364;-74
2022/12/22 23:23:21;;;;;;;5.68;3.30;;;11.60;99.90;;;;;;4952870;28;20226;-74
2022/12/22 23:25:51;;;;;;;5.20;3.13;;;11.60;99.90;;;;;;4950613;28;20220;-74
2022/12/22 23:28:18;;;;;;;6.13;3.00;;;11.60;99.90;;;;;;4955465;28;20207;-74
2022/12/22 23:30:49;;;;;;;4.75;3.03;;;11.60;99.90;;;;;;4955646;28;20270;-74
2022/12/22 23:33:18;;;;;;;5.30;3.10;;;11.60;99.90;;;;;;4959277;28;20204;-73
2022/12/22 23:35:46;;;;;;;4.90;2.85;;;11.60;99.90;;;;;;4958409;28;20183;-73
2022/12/22 23:38:14;;;;;;;3.03;2.40;;;11.60;99.90;;;;;;4975680;28;20191;-73
2022/12/22 23:40:40;;;;;;;5.05;2.72;;;11.60;99.90;;;;;;4950094;28;20180;-74
2022/12/22 23:43:08;;;;;;;3.88;2.30;;;11.60;99.90;;;;;;4958074;28;20184;-74
2022/12/22 23:45:36;;;;;;;6.60;2.67;;;11.60;99.90;;;;;;4962652;28;20196;-73
2022/12/22 23:48:03;;;;;;;3.95;2.53;;;11.60;99.90;;;;;;4957570;28;20286;-74
2022/12/22 23:50:31;;;;;;;6.15;2.90;;;11.60;99.90;;;;;;4954670;29;20208;-74
2022/12/22 23:52:57;;;;;;;4.07;2.17;;;11.60;99.90;;;;;;4959635;28;20223;-74
2022/12/22 23:55:23;;;;;;;6.97;2.65;;;11.60;99.90;;;;;;4953060;28;20235;-75
2022/12/22 23:57:49;;;;;;;3.53;2.25;;;11.60;99.90;;;;;;4956091;28;20190;-75
